Latest Weather Observations for Hope Banks Beacon

IDQ60901

Issued at 9:41 am EST Tuesday 6 December 2022 (issued every 10 minutes, with the page automatically refreshed every 10 minutes)

About weather observations | Map of Brisbane area stations | Latest observations for Brisbane area | Other Formats
Station Details ID: 200897 Name: HOPE BANKS BEACON Lat: -27.43 Lon: 153.29 Height: 7.0 m
Data from the previous 72 hours. | See also: Recent months for locations in Queensland
Date/Time
EST
Temp
°C
App
Temp
°C
Dew
Point
°C
Rel
Hum
%
Delta-T
°C
Wind Press
QNH
hPa
Press
MSL
hPa
Rain since
9am
mm
Dir  Spd
km/h
Gust
km/h
Spd
kts
Gust
kts
06/09:30am - - - - - N 13 17 7 9 - - -
06/09:00am - - - - - N 2 19 1 10 - - -
06/08:30am - - - - - CALM 0 9 0 5 - - -
06/08:00am - - - - - W 2 15 1 8 - - -
06/07:30am - - - - - W 9 13 5 7 - - -
06/07:00am - - - - - WNW 7 13 4 7 - - -
06/06:30am - - - - - NW 7 9 4 5 - - -
06/06:00am - - - - - NW 9 13 5 7 - - -
06/05:30am - - - - - NNW 13 15 7 8 - - -
06/05:00am - - - - - NNW 15 17 8 9 - - -
06/04:30am - - - - - NNW 13 17 7 9 - - -
06/04:00am - - - - - NNW 9 11 5 6 - - -
06/03:30am - - - - - NNW 11 13 6 7 - - -
06/03:00am - - - - - NNW 17 20 9 11 - - -
06/02:30am - - - - - NNW 17 19 9 10 - - -
06/02:00am - - - - - NNW 15 17 8 9 - - -
06/01:30am - - - - - N 13 17 7 9 - - -
06/01:00am - - - - - N 15 17 8 9 - - -
06/12:30am - - - - - N 13 15 7 8 - - -
06/12:00am - - - - - NNW 11 13 6 7 - - -
 
Date/Time
EST
Temp
°C
App
Temp
°C
Dew
Point
°C
Rel
Hum
%
Delta-T
°C
Wind Press
QNH
hPa
Press
MSL
hPa
Rain since
9am
mm
Dir  Spd
km/h
Gust
km/h
Spd
kts
Gust
kts
05/11:30pm - - - - - N 9 11 5 6 - - -
05/11:00pm - - - - - N 9 11 5 6 - - -
05/10:30pm - - - - - NNE 9 13 5 7 - - -
05/10:00pm - - - - - NE 9 11 5 6 - - -
05/09:30pm - - - - - NE 7 9 4 5 - - -
05/09:00pm - - - - - ENE 9 11 5 6 - - -
05/08:30pm - - - - - E 13 17 7 9 - - -
05/08:00pm - - - - - ENE 15 17 8 9 - - -
05/07:30pm - - - - - ENE 13 15 7 8 - - -
05/07:00pm - - - - - ENE 9 15 5 8 - - -
05/06:30pm - - - - - NE 7 11 4 6 - - -
05/06:00pm - - - - - NE 7 13 4 7 - - -
05/05:30pm - - - - - ENE 9 15 5 8 - - -
05/05:00pm - - - - - ENE 7 11 4 6 - - -
05/04:30pm - - - - - ENE 6 15 3 8 - - -
05/04:00pm - - - - - ENE 13 15 7 8 - - -
05/03:30pm - - - - - ENE 9 9 5 5 - - -
05/03:00pm - - - - - E 9 13 5 7 - - -
05/02:30pm - - - - - E 9 13 5 7 - - -
05/02:00pm - - - - - E 7 11 4 6 - - -
05/01:30pm - - - - - ESE 11 13 6 7 - - -
05/01:00pm - - - - - ESE 15 17 8 9 - - -
05/12:30pm - - - - - ESE 17 19 9 10 - - -
05/12:00pm - - - - - SE 17 20 9 11 - - -
05/11:30am - - - - - SE 17 19 9 10 - - -
05/11:00am - - - - - SSE 17 19 9 10 - - -
05/10:30am - - - - - SE 17 19 9 10 - - -
05/10:00am - - - - - SSE 17 22 9 12 - - -
05/09:30am - - - - - S 20 22 11 12 - - -
05/09:00am - - - - - S 19 22 10 12 - - -
05/08:30am - - - - - S 17 20 9 11 - - -
05/08:00am - - - - - S 17 20 9 11 - - -
05/07:30am - - - - - SSE 15 19 8 10 - - -
05/07:00am - - - - - SSW 13 17 7 9 - - -
05/06:30am - - - - - SW 13 15 7 8 - - -
05/06:00am - - - - - SW 15 17 8 9 - - -
05/05:30am - - - - - SW 17 19 9 10 - - -
05/05:00am - - - - - SW 17 19 9 10 - - -
05/04:30am - - - - - SW 17 20 9 11 - - -
05/04:00am - - - - - SW 17 20 9 11 - - -
05/03:30am - - - - - SW 11 15 6 8 - - -
05/03:00am - - - - - SSW 20 22 11 12 - - -
05/02:30am - - - - - S 20 24 11 13 - - -
05/02:00am - - - - - S 22 28 12 15 - - -
05/01:30am - - - - - S 24 28 13 15 - - -
05/01:00am - - - - - S 22 26 12 14 - - -
05/12:30am - - - - - SSE 28 35 15 19 - - -
05/12:00am - - - - - SSE 30 35 16 19 - - -
 
Date/Time
EST
Temp
°C
App
Temp
°C
Dew
Point
°C
Rel
Hum
%
Delta-T
°C
Wind Press
QNH
hPa
Press
MSL
hPa
Rain since
9am
mm
Dir  Spd
km/h
Gust
km/h
Spd
kts
Gust
kts
04/11:30pm - - - - - SSE 30 37 16 20 - - -
04/11:00pm - - - - - SSE 30 37 16 20 - - -
04/10:30pm - - - - - SSE 28 33 15 18 - - -
04/10:00pm - - - - - SSE 28 32 15 17 - - -
04/09:30pm - - - - - SSE 26 30 14 16 - - -
04/09:00pm - - - - - SSE 30 35 16 19 - - -
04/08:30pm - - - - - SSE 24 28 13 15 - - -
04/08:00pm - - - - - S 22 26 12 14 - - -
04/07:30pm - - - - - SSE 30 33 16 18 - - -
04/07:00pm - - - - - SSE 28 35 15 19 - - -
04/06:30pm - - - - - SSE 28 33 15 18 - - -
04/06:00pm - - - - - SSE 30 37 16 20 - - -
04/05:30pm - - - - - SSE 32 37 17 20 - - -
04/05:00pm - - - - - SE 33 39 18 21 - - -
04/04:30pm - - - - - SE 30 37 16 20 - - -
04/04:00pm - - - - - SSE 33 41 18 22 - - -
04/03:30pm - - - - - SSE 33 39 18 21 - - -
04/03:00pm - - - - - SSE 32 37 17 20 - - -
04/02:30pm - - - - - SSE 32 39 17 21 - - -
04/02:00pm - - - - - SSE 30 35 16 19 - - -
04/01:30pm - - - - - SSE 33 41 18 22 - - -
04/01:00pm - - - - - SSE 35 39 19 21 - - -
04/12:30pm - - - - - SE 30 37 16 20 - - -
04/12:00pm - - - - - SE 35 43 19 23 - - -
04/11:30am - - - - - SSE 30 37 16 20 - - -
04/11:00am - - - - - SSE 30 33 16 18 - - -
04/10:30am - - - - - SSE 28 35 15 19 - - -
04/10:00am - - - - - SSE 26 32 14 17 - - -
04/09:30am - - - - - S 30 35 16 19 - - -
04/09:00am - - - - - S 26 30 14 16 - - -
04/08:30am - - - - - S 32 35 17 19 - - -
04/08:00am - - - - - S 26 32 14 17 - - -
04/07:30am - - - - - S 26 35 14 19 - - -
04/07:00am - - - - - S 26 32 14 17 - - -
04/06:30am - - - - - S 24 30 13 16 - - -
04/06:00am - - - - - S 28 32 15 17 - - -
04/05:30am - - - - - S 20 28 11 15 - - -
04/05:00am - - - - - S 19 22 10 12 - - -
04/04:30am - - - - - S 24 30 13 16 - - -
04/04:00am - - - - - S 26 32 14 17 - - -
04/03:30am - - - - - S 26 32 14 17 - - -
04/03:00am - - - - - S 28 32 15 17 - - -
04/02:30am - - - - - S 26 32 14 17 - - -
04/02:00am - - - - - S 24 32 13 17 - - -
04/01:30am - - - - - S 24 32 13 17 - - -
04/01:00am - - - - - SSW 26 32 14 17 - - -
04/12:30am - - - - - SSW 26 32 14 17 - - -
04/12:00am - - - - - SSW 24 30 13 16 - - -
 
Date/Time
EST
Temp
°C
App
Temp
°C
Dew
Point
°C
Rel
Hum
%
Delta-T
°C
Wind Press
QNH
hPa
Press
MSL
hPa
Rain since
9am
mm
Dir  Spd
km/h
Gust
km/h
Spd
kts
Gust
kts
03/11:30pm - - - - - S 24 30 13 16 - - -
03/11:00pm - - - - - SSW 28 35 15 19 - - -
03/10:30pm - - - - - S 28 35 15 19 - - -
03/10:00pm - - - - - S 32 41 17 22 - - -
03/09:30pm - - - - - S 35 44 19 24 - - -
03/09:00pm - - - - - S 32 37 17 20 - - -
03/08:30pm - - - - - S 28 37 15 20 - - -
03/08:00pm - - - - - S 22 28 12 15 - - -
03/07:30pm - - - - - S 26 37 14 20 - - -
03/07:00pm - - - - - SSW 24 30 13 16 - - -
03/06:30pm - - - - - S 30 39 16 21 - - -
03/06:00pm - - - - - SSE 35 41 19 22 - - -
03/05:30pm - - - - - SSE 39 46 21 25 - - -
03/05:00pm - - - - - SSE 33 41 18 22 - - -
03/04:30pm - - - - - SSE 37 43 20 23 - - -
03/04:00pm - - - - - SSE 35 41 19 22 - - -
03/03:30pm - - - - - SSE 37 48 20 26 - - -
03/03:00pm - - - - - SSE 37 46 20 25 - - -
03/02:30pm - - - - - SSE 41 48 22 26 - - -
03/02:00pm - - - - - SE 39 48 21 26 - - -
03/01:30pm - - - - - SSE 37 46 20 25 - - -
03/01:00pm - - - - - SSE 35 43 19 23 - - -
03/12:30pm - - - - - SSE 41 52 22 28 - - -
03/12:00pm - - - - - SSE 41 50 22 27 - - -
03/11:30am - - - - - SSE 39 46 21 25 - - -
03/11:00am - - - - - SE 37 48 20 26 - - -
03/10:30am - - - - - SSE 33 39 18 21 - - -
03/10:00am - - - - - SSE 37 46 20 25 - - -

Latest Capital City Observations: Canberra | Sydney | Melbourne | Brisbane | Adelaide | Perth | Hobart | Darwin

Other formats

Comma delimited format used in spreadsheet applications
http://www.bom.gov.au/fwo/IDQ60901/IDQ60901.99497.axf

JavaScript Object Notation format (JSON) in row-major order
http://www.bom.gov.au/fwo/IDQ60901/IDQ60901.99497.json

Data quality

Most of these data are generated automatically and are frequently updated. Quality checks on data are not normally performed. It is possible for incorrect values to appear. Refer to information at About Latest Weather Observations and please check the disclaimer before using these data.